sensor_id;sensor_type;location;lat;lon;timestamp;pressure;altitude;pressure_sealevel;temperature;humidity
54936;BME280;40838;50.676;7.838;2023-06-24T00:00:57;99252.31;;;11.71;100.00
54936;BME280;40838;50.676;7.838;2023-06-24T00:03:24;99250.06;;;11.91;100.00
54936;BME280;40838;50.676;7.838;2023-06-24T00:05:51;99246.78;;;12.01;100.00
54936;BME280;40838;50.676;7.838;2023-06-24T00:08:19;99241.00;;;12.04;100.00
54936;BME280;40838;50.676;7.838;2023-06-24T00:10:47;99233.38;;;12.07;100.00
54936;BME280;40838;50.676;7.838;2023-06-24T00:13:16;99238.53;;;12.14;100.00
54936;BME280;40838;50.676;7.838;2023-06-24T00:15:43;99235.31;;;12.12;100.00
54936;BME280;40838;50.676;7.838;2023-06-24T00:18:10;99239.25;;;12.26;100.00
54936;BME280;40838;50.676;7.838;2023-06-24T00:20:37;99238.38;;;12.21;100.00
54936;BME280;40838;50.676;7.838;2023-06-24T00:23:08;99238.47;;;12.26;100.00
54936;BME280;40838;50.676;7.838;2023-06-24T00:25:35;99245.53;;;12.20;100.00
54936;BME280;40838;50.676;7.838;2023-06-24T00:28:02;99244.97;;;12.18;100.00
54936;BME280;40838;50.676;7.838;2023-06-24T00:30:31;99242.66;;;12.22;100.00
54936;BME280;40838;50.676;7.838;2023-06-24T00:32:58;99244.91;;;12.30;100.00
54936;BME280;40838;50.676;7.838;2023-06-24T00:35:25;99242.81;;;12.32;100.00
54936;BME280;40838;50.676;7.838;2023-06-24T00:37:52;99240.47;;;12.36;100.00
54936;BME280;40838;50.676;7.838;2023-06-24T00:40:23;99238.25;;;12.27;100.00
54936;BME280;40838;50.676;7.838;2023-06-24T00:42:51;99242.25;;;12.30;100.00
54936;BME280;40838;50.676;7.838;2023-06-24T00:45:18;99238.78;;;12.29;100.00
54936;BME280;40838;50.676;7.838;2023-06-24T00:47:47;99237.09;;;12.23;100.00
54936;BME280;40838;50.676;7.838;2023-06-24T00:50:14;99234.69;;;12.22;100.00
54936;BME280;40838;50.676;7.838;2023-06-24T00:52:41;99238.31;;;12.16;100.00
54936;BME280;40838;50.676;7.838;2023-06-24T00:55:09;99240.66;;;12.00;100.00
54936;BME280;40838;50.676;7.838;2023-06-24T00:57:37;99238.75;;;11.96;100.00
54936;BME280;40838;50.676;7.838;2023-06-24T01:00:05;99234.22;;;11.96;100.00
54936;BME280;40838;50.676;7.838;2023-06-24T01:02:35;99241.44;;;11.84;100.00
54936;BME280;40838;50.676;7.838;2023-06-24T01:05:06;99240.38;;;11.85;100.00
54936;BME280;40838;50.676;7.838;2023-06-24T01:07:35;99234.28;;;11.84;100.00
54936;BME280;40838;50.676;7.838;2023-06-24T01:10:02;99236.13;;;11.84;100.00
54936;BME280;40838;50.676;7.838;2023-06-24T01:12:33;99240.88;;;11.82;100.00
54936;BME280;40838;50.676;7.838;2023-06-24T01:15:01;99245.38;;;11.81;100.00
54936;BME280;40838;50.676;7.838;2023-06-24T01:17:32;99239.16;;;11.76;100.00
54936;BME280;40838;50.676;7.838;2023-06-24T01:20:08;99238.03;;;11.72;100.00
54936;BME280;40838;50.676;7.838;2023-06-24T01:26:03;99236.91;;;11.56;100.00
54936;BME280;40838;50.676;7.838;2023-06-24T01:29:06;99243.81;;;11.57;100.00
54936;BME280;40838;50.676;7.838;2023-06-24T01:31:42;99244.88;;;11.44;100.00
54936;BME280;40838;50.676;7.838;2023-06-24T01:34:20;99245.50;;;11.34;100.00
54936;BME280;40838;50.676;7.838;2023-06-24T01:36:55;99248.69;;;11.13;100.00
54936;BME280;40838;50.676;7.838;2023-06-24T01:39:25;99245.59;;;11.04;100.00
54936;BME280;40838;50.676;7.838;2023-06-24T01:41:59;99252.75;;;11.04;100.00
54936;BME280;40838;50.676;7.838;2023-06-24T01:44:28;99251.13;;;11.03;100.00
54936;BME280;40838;50.676;7.838;2023-06-24T01:46:58;99235.00;;;11.04;100.00
54936;BME280;40838;50.676;7.838;2023-06-24T01:49:28;99240.41;;;11.09;100.00
54936;BME280;40838;50.676;7.838;2023-06-24T01:51:57;99236.16;;;11.08;100.00
54936;BME280;40838;50.676;7.838;2023-06-24T01:54:28;99243.06;;;11.09;100.00
54936;BME280;40838;50.676;7.838;2023-06-24T01:56:57;99238.94;;;11.13;100.00
54936;BME280;40838;50.676;7.838;2023-06-24T01:59:28;99237.63;;;11.16;100.00
54936;BME280;40838;50.676;7.838;2023-06-24T02:01:57;99233.50;;;11.20;100.00
54936;BME280;40838;50.676;7.838;2023-06-24T02:04:25;99236.72;;;11.22;100.00
54936;BME280;40838;50.676;7.838;2023-06-24T02:06:57;99241.44;;;11.20;100.00
54936;BME280;40838;50.676;7.838;2023-06-24T02:09:28;99237.09;;;11.26;100.00
54936;BME280;40838;50.676;7.838;2023-06-24T02:11:58;99234.28;;;11.21;100.00
54936;BME280;40838;50.676;7.838;2023-06-24T02:14:26;99231.06;;;11.19;100.00
54936;BME280;40838;50.676;7.838;2023-06-24T02:16:58;99228.78;;;11.10;100.00
54936;BME280;40838;50.676;7.838;2023-06-24T02:19:29;99232.25;;;10.99;100.00
54936;BME280;40838;50.676;7.838;2023-06-24T02:21:57;99225.44;;;11.03;100.00
54936;BME280;40838;50.676;7.838;2023-06-24T02:24:26;99229.34;;;11.12;100.00
54936;BME280;40838;50.676;7.838;2023-06-24T02:26:54;99226.56;;;11.07;100.00
54936;BME280;40838;50.676;7.838;2023-06-24T02:29:22;99229.69;;;11.04;100.00
54936;BME280;40838;50.676;7.838;2023-06-24T02:31:49;99230.63;;;11.10;100.00
54936;BME280;40838;50.676;7.838;2023-06-24T02:34:22;99216.81;;;11.08;100.00
54936;BME280;40838;50.676;7.838;2023-06-24T02:36:49;99226.81;;;11.18;100.00
54936;BME280;40838;50.676;7.838;2023-06-24T02:39:16;99225.53;;;11.20;100.00
54936;BME280;40838;50.676;7.838;2023-06-24T02:41:45;99224.03;;;11.24;100.00
54936;BME280;40838;50.676;7.838;2023-06-24T02:44:15;99221.72;;;11.39;100.00
54936;BME280;40838;50.676;7.838;2023-06-24T02:46:42;99218.84;;;11.41;100.00
54936;BME280;40838;50.676;7.838;2023-06-24T02:49:12;99225.09;;;11.35;100.00
54936;BME280;40838;50.676;7.838;2023-06-24T02:51:42;99224.38;;;11.39;100.00
54936;BME280;40838;50.676;7.838;2023-06-24T02:54:09;99228.50;;;11.47;100.00
54936;BME280;40838;50.676;7.838;2023-06-24T02:57:10;99232.47;;;11.33;100.00
54936;BME280;40838;50.676;7.838;2023-06-24T02:59:59;99237.88;;;11.03;100.00
54936;BME280;40838;50.676;7.838;2023-06-24T03:02:42;99249.63;;;10.83;100.00
54936;BME280;40838;50.676;7.838;2023-06-24T03:05:10;99247.53;;;10.62;100.00
54936;BME280;40838;50.676;7.838;2023-06-24T03:07:41;99238.19;;;10.47;100.00
54936;BME280;40838;50.676;7.838;2023-06-24T03:10:08;99251.91;;;10.56;100.00
54936;BME280;40838;50.676;7.838;2023-06-24T03:12:36;99249.28;;;10.68;100.00
54936;BME280;40838;50.676;7.838;2023-06-24T03:15:06;99245.97;;;10.84;100.00
54936;BME280;40838;50.676;7.838;2023-06-24T03:17:35;99250.22;;;10.85;100.00
54936;BME280;40838;50.676;7.838;2023-06-24T03:20:03;99251.94;;;10.68;100.00
54936;BME280;40838;50.676;7.838;2023-06-24T03:22:31;99254.06;;;10.47;100.00
54936;BME280;40838;50.676;7.838;2023-06-24T03:25:00;99260.03;;;10.43;100.00
54936;BME280;40838;50.676;7.838;2023-06-24T03:27:26;99257.28;;;10.38;100.00
54936;BME280;40838;50.676;7.838;2023-06-24T03:29:53;99256.13;;;10.45;100.00
54936;BME280;40838;50.676;7.838;2023-06-24T03:32:20;99252.00;;;10.38;100.00
54936;BME280;40838;50.676;7.838;2023-06-24T03:34:48;99261.31;;;10.40;100.00
54936;BME280;40838;50.676;7.838;2023-06-24T03:37:14;99263.06;;;10.46;100.00
54936;BME280;40838;50.676;7.838;2023-06-24T03:39:41;99251.44;;;10.47;100.00
54936;BME280;40838;50.676;7.838;2023-06-24T03:42:12;99258.13;;;10.50;100.00
54936;BME280;40838;50.676;7.838;2023-06-24T03:44:39;99245.81;;;10.56;100.00
54936;BME280;40838;50.676;7.838;2023-06-24T03:47:06;99250.06;;;10.57;100.00
54936;BME280;40838;50.676;7.838;2023-06-24T03:49:34;99255.63;;;10.67;100.00
54936;BME280;40838;50.676;7.838;2023-06-24T03:52:03;99254.44;;;10.63;100.00
54936;BME280;40838;50.676;7.838;2023-06-24T03:54:35;99257.44;;;10.66;100.00
54936;BME280;40838;50.676;7.838;2023-06-24T03:57:02;99255.38;;;10.68;100.00
54936;BME280;40838;50.676;7.838;2023-06-24T03:59:31;99248.38;;;10.86;100.00
54936;BME280;40838;50.676;7.838;2023-06-24T04:02:00;99243.88;;;11.10;100.00
54936;BME280;40838;50.676;7.838;2023-06-24T04:04:27;99252.03;;;11.20;100.00
54936;BME280;40838;50.676;7.838;2023-06-24T04:06:55;99238.34;;;11.23;100.00
54936;BME280;40838;50.676;7.838;2023-06-24T04:09:22;99254.47;;;11.33;100.00
54936;BME280;40838;50.676;7.838;2023-06-24T04:11:52;99248.56;;;11.55;100.00
54936;BME280;40838;50.676;7.838;2023-06-24T04:14:20;99260.63;;;11.63;100.00
54936;BME280;40838;50.676;7.838;2023-06-24T04:16:50;99248.59;;;11.83;100.00
54936;BME280;40838;50.676;7.838;2023-06-24T04:19:17;99244.75;;;11.91;100.00
54936;BME280;40838;50.676;7.838;2023-06-24T04:21:44;99242.13;;;12.08;100.00
54936;BME280;40838;50.676;7.838;2023-06-24T04:24:12;99235.97;;;12.19;100.00
54936;BME280;40838;50.676;7.838;2023-06-24T04:26:39;99237.44;;;12.44;100.00
54936;BME280;40838;50.676;7.838;2023-06-24T04:29:05;99239.03;;;12.28;100.00
54936;BME280;40838;50.676;7.838;2023-06-24T04:31:32;99244.63;;;12.15;100.00
54936;BME280;40838;50.676;7.838;2023-06-24T04:34:00;99248.94;;;12.33;100.00
54936;BME280;40838;50.676;7.838;2023-06-24T04:36:30;99247.34;;;12.48;100.00
54936;BME280;40838;50.676;7.838;2023-06-24T04:38:56;99234.06;;;12.65;100.00
54936;BME280;40838;50.676;7.838;2023-06-24T04:41:23;99244.34;;;12.45;100.00
54936;BME280;40838;50.676;7.838;2023-06-24T04:43:51;99261.56;;;12.25;100.00
54936;BME280;40838;50.676;7.838;2023-06-24T04:46:17;99254.31;;;12.38;100.00
54936;BME280;40838;50.676;7.838;2023-06-24T04:48:44;99252.28;;;12.73;100.00
54936;BME280;40838;50.676;7.838;2023-06-24T04:51:12;99252.97;;;13.03;100.00
54936;BME280;40838;50.676;7.838;2023-06-24T04:53:41;99255.81;;;12.96;100.00
54936;BME280;40838;50.676;7.838;2023-06-24T04:56:07;99258.69;;;13.11;100.00
54936;BME280;40838;50.676;7.838;2023-06-24T04:58:35;99251.34;;;13.18;100.00
54936;BME280;40838;50.676;7.838;2023-06-24T05:01:02;99254.28;;;13.39;100.00
54936;BME280;40838;50.676;7.838;2023-06-24T05:03:30;99255.94;;;13.06;100.00
54936;BME280;40838;50.676;7.838;2023-06-24T05:05:59;99246.41;;;13.49;100.00
54936;BME280;40838;50.676;7.838;2023-06-24T05:08:27;99247.03;;;13.56;100.00
54936;BME280;40838;50.676;7.838;2023-06-24T05:10:54;99245.69;;;13.76;100.00
54936;BME280;40838;50.676;7.838;2023-06-24T05:13:21;99244.19;;;14.39;100.00
54936;BME280;40838;50.676;7.838;2023-06-24T05:15:47;99249.41;;;14.61;100.00
54936;BME280;40838;50.676;7.838;2023-06-24T05:18:14;99244.53;;;15.22;100.00
54936;BME280;40838;50.676;7.838;2023-06-24T05:20:41;99250.16;;;15.89;100.00
54936;BME280;40838;50.676;7.838;2023-06-24T05:23:10;99249.66;;;16.02;100.00
54936;BME280;40838;50.676;7.838;2023-06-24T05:25:38;99231.84;;;17.65;100.00
54936;BME280;40838;50.676;7.838;2023-06-24T05:28:05;99236.91;;;18.84;100.00
54936;BME280;40838;50.676;7.838;2023-06-24T05:30:31;99234.25;;;18.79;100.00
54936;BME280;40838;50.676;7.838;2023-06-24T05:32:58;99234.94;;;19.43;100.00
54936;BME280;40838;50.676;7.838;2023-06-24T05:35:25;99237.06;;;20.60;100.00
54936;BME280;40838;50.676;7.838;2023-06-24T05:37:52;99243.06;;;19.81;100.00
54936;BME280;40838;50.676;7.838;2023-06-24T05:40:19;99242.75;;;22.47;100.00
54936;BME280;40838;50.676;7.838;2023-06-24T05:42:47;99240.13;;;22.86;100.00
54936;BME280;40838;50.676;7.838;2023-06-24T05:45:17;99240.13;;;24.36;100.00
54936;BME280;40838;50.676;7.838;2023-06-24T05:47:44;99244.91;;;24.30;100.00
54936;BME280;40838;50.676;7.838;2023-06-24T05:50:17;99248.66;;;24.81;92.95
54936;BME280;40838;50.676;7.838;2023-06-24T05:52:44;99249.53;;;24.30;94.87
54936;BME280;40838;50.676;7.838;2023-06-24T05:55:11;99243.06;;;23.07;100.00
54936;BME280;40838;50.676;7.838;2023-06-24T05:57:39;99246.19;;;22.25;100.00
54936;BME280;40838;50.676;7.838;2023-06-24T06:00:08;99239.03;;;22.96;100.00
54936;BME280;40838;50.676;7.838;2023-06-24T06:02:42;99231.28;;;23.43;100.00
54936;BME280;40838;50.676;7.838;2023-06-24T06:05:09;99238.97;;;22.34;100.00
54936;BME280;40838;50.676;7.838;2023-06-24T06:07:36;99232.88;;;23.44;100.00
54936;BME280;40838;50.676;7.838;2023-06-24T06:10:05;99232.88;;;23.44;99.91
54936;BME280;40838;50.676;7.838;2023-06-24T06:12:33;99231.56;;;23.24;100.00
54936;BME280;40838;50.676;7.838;2023-06-24T06:15:02;99234.94;;;22.67;100.00
54936;BME280;40838;50.676;7.838;2023-06-24T06:17:31;99237.59;;;24.39;95.21
54936;BME280;40838;50.676;7.838;2023-06-24T06:19:58;99232.72;;;24.88;92.16
54936;BME280;40838;50.676;7.838;2023-06-24T06:22:25;99229.59;;;26.17;85.25
54936;BME280;40838;50.676;7.838;2023-06-24T06:24:52;99228.56;;;26.22;82.39
54936;BME280;40838;50.676;7.838;2023-06-24T06:27:18;99242.88;;;25.39;84.87
54936;BME280;40838;50.676;7.838;2023-06-24T06:29:45;99233.69;;;25.81;87.84
54936;BME280;40838;50.676;7.838;2023-06-24T06:32:26;99237.69;;;26.38;81.82
54936;BME280;40838;50.676;7.838;2023-06-24T06:34:54;99231.91;;;26.61;77.52
54936;BME280;40838;50.676;7.838;2023-06-24T06:37:21;99231.47;;;26.71;77.87
54936;BME280;40838;50.676;7.838;2023-06-24T06:39:48;99242.44;;;24.89;86.23
54936;BME280;40838;50.676;7.838;2023-06-24T06:42:15;99234.31;;;26.08;82.44
54936;BME280;40838;50.676;7.838;2023-06-24T06:44:42;99237.19;;;26.57;78.88
54936;BME280;40838;50.676;7.838;2023-06-24T06:47:10;99241.66;;;25.57;83.43
54936;BME280;40838;50.676;7.838;2023-06-24T06:49:38;99236.88;;;26.59;78.21
54936;BME280;40838;50.676;7.838;2023-06-24T06:52:09;99251.16;;;25.42;83.81
54936;BME280;40838;50.676;7.838;2023-06-24T06:54:37;99236.13;;;26.83;79.65
54936;BME280;40838;50.676;7.838;2023-06-24T06:57:05;99240.75;;;25.74;79.75
54936;BME280;40838;50.676;7.838;2023-06-24T06:59:31;99235.69;;;26.14;83.04
54936;BME280;40838;50.676;7.838;2023-06-24T07:01:59;99251.63;;;24.50;89.63
54936;BME280;40838;50.676;7.838;2023-06-24T07:04:25;99242.81;;;26.19;81.39
54936;BME280;40838;50.676;7.838;2023-06-24T07:06:52;99239.81;;;26.54;77.94
54936;BME280;40838;50.676;7.838;2023-06-24T07:09:20;99241.81;;;27.51;73.75
54936;BME280;40838;50.676;7.838;2023-06-24T07:11:49;99245.59;;;26.64;75.35
54936;BME280;40838;50.676;7.838;2023-06-24T07:14:16;99238.31;;;27.02;76.36
54936;BME280;40838;50.676;7.838;2023-06-24T07:16:43;99237.13;;;27.89;72.49
54936;BME280;40838;50.676;7.838;2023-06-24T07:19:11;99239.09;;;28.88;66.03
54936;BME280;40838;50.676;7.838;2023-06-24T07:21:42;99235.91;;;28.26;70.05
54936;BME280;40838;50.676;7.838;2023-06-24T07:24:10;99237.31;;;27.55;74.59
54936;BME280;40838;50.676;7.838;2023-06-24T07:26:38;99227.41;;;28.16;72.96
54936;BME280;40838;50.676;7.838;2023-06-24T07:29:06;99235.03;;;26.96;76.87
54936;BME280;40838;50.676;7.838;2023-06-24T07:31:33;99241.66;;;25.57;77.68
54936;BME280;40838;50.676;7.838;2023-06-24T07:34:00;99242.72;;;24.88;79.02
54936;BME280;40838;50.676;7.838;2023-06-24T07:37:28;99239.56;;;26.25;70.99
54936;BME280;40838;50.676;7.838;2023-06-24T07:40:26;99242.44;;;24.89;77.39
54936;BME280;40838;50.676;7.838;2023-06-24T07:42:54;99245.78;;;26.05;74.91
54936;BME280;40838;50.676;7.838;2023-06-24T07:45:21;99234.75;;;26.10;76.20
54936;BME280;40838;50.676;7.838;2023-06-24T07:47:48;99241.50;;;28.05;72.33
54936;BME280;40838;50.676;7.838;2023-06-24T07:50:15;99240.94;;;27.47;73.47
54936;BME280;40838;50.676;7.838;2023-06-24T07:53:02;99242.97;;;28.43;74.65
54936;BME280;40838;50.676;7.838;2023-06-24T07:59:19;99247.72;;;27.66;64.74
54936;BME280;40838;50.676;7.838;2023-06-24T08:01:45;99244.56;;;27.64;67.97
54936;BME280;40838;50.676;7.838;2023-06-24T08:04:12;99242.16;;;27.87;66.06
54936;BME280;40838;50.676;7.838;2023-06-24T08:06:40;99248.75;;;28.14;67.44
54936;BME280;40838;50.676;7.838;2023-06-24T08:09:09;99252.84;;;25.76;70.91
54936;BME280;40838;50.676;7.838;2023-06-24T08:11:36;99251.88;;;25.13;74.91
54936;BME280;40838;50.676;7.838;2023-06-24T08:14:02;99246.31;;;26.40;75.27
54936;BME280;40838;50.676;7.838;2023-06-24T08:16:31;99236.31;;;27.11;73.92
54936;BME280;40838;50.676;7.838;2023-06-24T08:18:58;99245.66;;;26.43;75.63
54936;BME280;40838;50.676;7.838;2023-06-24T08:21:25;99239.53;;;26.80;73.38
54936;BME280;40838;50.676;7.838;2023-06-24T08:23:52;99238.53;;;26.97;72.65
54936;BME280;40838;50.676;7.838;2023-06-24T08:26:19;99238.31;;;26.23;76.43
54936;BME280;40838;50.676;7.838;2023-06-24T08:28:46;99228.50;;;26.31;74.65
54936;BME280;40838;50.676;7.838;2023-06-24T08:31:13;99224.97;;;27.33;74.31
54936;BME280;40838;50.676;7.838;2023-06-24T08:33:43;99225.66;;;27.30;76.04
54936;BME280;40838;50.676;7.838;2023-06-24T08:36:10;99229.53;;;27.05;74.44
54936;BME280;40838;50.676;7.838;2023-06-24T08:38:37;99232.13;;;27.13;72.77
54936;BME280;40838;50.676;7.838;2023-06-24T08:41:04;99231.28;;;27.01;74.81
54936;BME280;40838;50.676;7.838;2023-06-24T08:43:30;99228.38;;;27.06;73.08
54936;BME280;40838;50.676;7.838;2023-06-24T08:45:57;99234.44;;;27.76;71.04
54936;BME280;40838;50.676;7.838;2023-06-24T08:48:25;99226.88;;;27.45;74.37
54936;BME280;40838;50.676;7.838;2023-06-24T08:50:58;99230.50;;;26.42;79.20
54936;BME280;40838;50.676;7.838;2023-06-24T08:53:28;99237.31;;;27.06;77.23
54936;BME280;40838;50.676;7.838;2023-06-24T08:55:58;99234.78;;;27.01;76.60
54936;BME280;40838;50.676;7.838;2023-06-24T08:58:25;99233.94;;;26.31;78.94
54936;BME280;40838;50.676;7.838;2023-06-24T09:00:52;99242.66;;;25.05;82.03
54936;BME280;40838;50.676;7.838;2023-06-24T09:03:19;99240.41;;;26.71;78.78
54936;BME280;40838;50.676;7.838;2023-06-24T09:05:46;99236.75;;;26.55;80.58
54936;BME280;40838;50.676;7.838;2023-06-24T09:08:15;99233.63;;;26.90;76.30
54936;BME280;40838;50.676;7.838;2023-06-24T09:10:43;99234.25;;;26.50;77.67
54936;BME280;40838;50.676;7.838;2023-06-24T09:13:09;99234.34;;;25.78;84.43
54936;BME280;40838;50.676;7.838;2023-06-24T09:15:38;99232.56;;;27.03;76.60
54936;BME280;40838;50.676;7.838;2023-06-24T09:18:05;99231.78;;;27.15;76.14
54936;BME280;40838;50.676;7.838;2023-06-24T09:20:33;99226.53;;;27.59;77.70
54936;BME280;40838;50.676;7.838;2023-06-24T09:23:05;99223.91;;;27.01;79.00
54936;BME280;40838;50.676;7.838;2023-06-24T09:25:33;99223.22;;;26.13;84.27
54936;BME280;40838;50.676;7.838;2023-06-24T09:28:00;99221.66;;;26.91;79.66
54936;BME280;40838;50.676;7.838;2023-06-24T09:30:27;99214.47;;;28.25;73.47
54936;BME280;40838;50.676;7.838;2023-06-24T09:32:55;99217.41;;;27.14;78.59
54936;BME280;40838;50.676;7.838;2023-06-24T09:35:23;99224.16;;;24.69;90.69
54936;BME280;40838;50.676;7.838;2023-06-24T09:37:51;99204.91;;;26.89;77.94
54936;BME280;40838;50.676;7.838;2023-06-24T09:40:18;99210.34;;;27.63;76.95
54936;BME280;40838;50.676;7.838;2023-06-24T09:42:51;99212.81;;;25.23;83.20
54936;BME280;40838;50.676;7.838;2023-06-24T09:45:22;99199.41;;;27.87;73.77
54936;BME280;40838;50.676;7.838;2023-06-24T09:47:49;99197.22;;;28.65;71.78
54936;BME280;40838;50.676;7.838;2023-06-24T09:50:16;99205.22;;;25.67;79.26
54936;BME280;40838;50.676;7.838;2023-06-24T09:52:44;99198.34;;;25.69;81.81
54936;BME280;40838;50.676;7.838;2023-06-24T09:55:13;99198.50;;;27.06;74.72
54936;BME280;40838;50.676;7.838;2023-06-24T09:57:42;99189.97;;;26.83;75.67
54936;BME280;40838;50.676;7.838;2023-06-24T10:00:14;99204.69;;;24.84;84.22
54936;BME280;40838;50.676;7.838;2023-06-24T10:02:42;99195.66;;;25.90;79.10
54936;BME280;40838;50.676;7.838;2023-06-24T10:05:09;99192.56;;;26.79;81.11
54936;BME280;40838;50.676;7.838;2023-06-24T10:07:37;99187.03;;;26.88;76.09
54936;BME280;40838;50.676;7.838;2023-06-24T10:10:06;99189.16;;;27.68;75.52
54936;BME280;40838;50.676;7.838;2023-06-24T10:12:35;99180.16;;;27.80;67.86
54936;BME280;40838;50.676;7.838;2023-06-24T10:15:03;99181.41;;;28.11;74.54
54936;BME280;40838;50.676;7.838;2023-06-24T10:17:32;99183.28;;;28.98;69.26
54936;BME280;40838;50.676;7.838;2023-06-24T10:20:03;99174.00;;;28.83;66.55
54936;BME280;40838;50.676;7.838;2023-06-24T10:22:32;99178.03;;;27.73;69.79
54936;BME280;40838;50.676;7.838;2023-06-24T10:25:00;99179.06;;;27.97;63.71
54936;BME280;40838;50.676;7.838;2023-06-24T10:27:27;99166.25;;;29.01;65.85
54936;BME280;40838;50.676;7.838;2023-06-24T10:30:02;99167.75;;;27.42;73.09
54936;BME280;40838;50.676;7.838;2023-06-24T10:32:39;99164.88;;;28.03;73.58
54936;BME280;40838;50.676;7.838;2023-06-24T10:35:20;99178.31;;;26.37;77.99
54936;BME280;40838;50.676;7.838;2023-06-24T10:37:54;99171.91;;;28.33;73.07
54936;BME280;40838;50.676;7.838;2023-06-24T10:40:34;99164.38;;;28.14;66.99
54936;BME280;40838;50.676;7.838;2023-06-24T10:43:23;99166.50;;;26.08;75.59
54936;BME280;40838;50.676;7.838;2023-06-24T10:45:52;99162.03;;;27.19;73.81
54936;BME280;40838;50.676;7.838;2023-06-24T10:48:21;99152.19;;;27.14;69.58
54936;BME280;40838;50.676;7.838;2023-06-24T10:50:48;99159.28;;;24.43;83.18
54936;BME280;40838;50.676;7.838;2023-06-24T10:53:16;99153.06;;;25.70;82.30
54936;BME280;40838;50.676;7.838;2023-06-24T10:55:45;99149.69;;;26.73;79.19
54936;BME280;40838;50.676;7.838;2023-06-24T10:58:13;99150.03;;;25.50;72.17
54936;BME280;40838;50.676;7.838;2023-06-24T11:00:41;99142.56;;;27.17;69.42
54936;BME280;40838;50.676;7.838;2023-06-24T11:03:10;99136.75;;;27.31;70.30
54936;BME280;40838;50.676;7.838;2023-06-24T11:05:42;99133.03;;;27.76;70.32
54936;BME280;40838;50.676;7.838;2023-06-24T11:08:09;99138.63;;;27.02;68.25
54936;BME280;40838;50.676;7.838;2023-06-24T11:10:43;99132.44;;;25.77;78.02
54936;BME280;40838;50.676;7.838;2023-06-24T11:13:11;99131.00;;;26.83;73.13
54936;BME280;40838;50.676;7.838;2023-06-24T11:15:38;99125.84;;;27.03;73.25
54936;BME280;40838;50.676;7.838;2023-06-24T11:18:07;99124.22;;;27.26;69.73
54936;BME280;40838;50.676;7.838;2023-06-24T11:20:36;99125.66;;;27.76;67.09
54936;BME280;40838;50.676;7.838;2023-06-24T11:23:06;99124.06;;;27.35;70.70
54936;BME280;40838;50.676;7.838;2023-06-24T11:25:38;99128.63;;;26.12;71.50
54936;BME280;40838;50.676;7.838;2023-06-24T11:28:13;99125.78;;;26.54;71.28
54936;BME280;40838;50.676;7.838;2023-06-24T11:30:41;99118.78;;;25.53;79.18
54936;BME280;40838;50.676;7.838;2023-06-24T11:33:09;99115.25;;;25.73;70.88
54936;BME280;40838;50.676;7.838;2023-06-24T11:35:36;99118.75;;;24.73;74.91
54936;BME280;40838;50.676;7.838;2023-06-24T11:38:05;99106.38;;;26.18;72.87
54936;BME280;40838;50.676;7.838;2023-06-24T11:40:33;99110.13;;;25.39;76.22
54936;BME280;40838;50.676;7.838;2023-06-24T11:43:01;99097.34;;;25.60;78.50
54936;BME280;40838;50.676;7.838;2023-06-24T11:45:28;99113.81;;;24.19;79.87
54936;BME280;40838;50.676;7.838;2023-06-24T11:48:01;99109.88;;;23.55;84.60
54936;BME280;40838;50.676;7.838;2023-06-24T11:50:30;99098.19;;;24.80;77.86
54936;BME280;40838;50.676;7.838;2023-06-24T11:52:57;99099.50;;;26.21;76.11
54936;BME280;40838;50.676;7.838;2023-06-24T11:55:26;99090.16;;;26.92;71.78
54936;BME280;40838;50.676;7.838;2023-06-24T11:57:56;99084.47;;;26.23;70.99
54936;BME280;40838;50.676;7.838;2023-06-24T12:00:25;99079.44;;;27.36;70.87
54936;BME280;40838;50.676;7.838;2023-06-24T12:02:53;99079.06;;;26.60;73.25
54936;BME280;40838;50.676;7.838;2023-06-24T12:05:22;99071.56;;;27.19;70.77
54936;BME280;40838;50.676;7.838;2023-06-24T12:07:54;99078.47;;;25.01;72.17
54936;BME280;40838;50.676;7.838;2023-06-24T12:10:22;99073.53;;;24.73;73.03
54936;BME280;40838;50.676;7.838;2023-06-24T12:12:50;99068.16;;;24.64;71.85
54936;BME280;40838;50.676;7.838;2023-06-24T12:15:17;99064.66;;;25.77;68.91
54936;BME280;40838;50.676;7.838;2023-06-24T12:17:44;99072.84;;;26.60;67.77
54936;BME280;40838;50.676;7.838;2023-06-24T12:20:11;99063.03;;;25.97;74.56
54936;BME280;40838;50.676;7.838;2023-06-24T12:22:39;99058.81;;;27.07;76.91
54936;BME280;40838;50.676;7.838;2023-06-24T12:25:07;99053.47;;;27.79;73.25
54936;BME280;40838;50.676;7.838;2023-06-24T12:27:34;99058.84;;;27.35;70.78
54936;BME280;40838;50.676;7.838;2023-06-24T12:30:03;99054.94;;;26.34;67.24
54936;BME280;40838;50.676;7.838;2023-06-24T12:32:30;99057.81;;;26.50;70.58
54936;BME280;40838;50.676;7.838;2023-06-24T12:34:57;99051.25;;;27.41;68.33
54936;BME280;40838;50.676;7.838;2023-06-24T12:37:24;99048.38;;;27.49;63.75
54936;BME280;40838;50.676;7.838;2023-06-24T12:39:51;99054.00;;;27.85;69.79
54936;BME280;40838;50.676;7.838;2023-06-24T12:42:17;99050.53;;;27.15;65.89
54936;BME280;40838;50.676;7.838;2023-06-24T12:44:44;99046.81;;;27.08;65.89
54936;BME280;40838;50.676;7.838;2023-06-24T12:47:13;99044.47;;;26.45;70.92
54936;BME280;40838;50.676;7.838;2023-06-24T12:49:40;99055.13;;;26.50;70.03
54936;BME280;40838;50.676;7.838;2023-06-24T12:52:07;99053.47;;;26.37;69.32
54936;BME280;40838;50.676;7.838;2023-06-24T12:54:34;99040.38;;;26.14;70.67
54936;BME280;40838;50.676;7.838;2023-06-24T12:57:01;99036.97;;;26.30;63.06
54936;BME280;40838;50.676;7.838;2023-06-24T12:59:28;99037.97;;;26.13;67.56
54936;BME280;40838;50.676;7.838;2023-06-24T13:01:55;99044.94;;;26.47;66.28
54936;BME280;40838;50.676;7.838;2023-06-24T13:04:23;99039.38;;;27.33;64.25
54936;BME280;40838;50.676;7.838;2023-06-24T13:06:51;99035.44;;;28.02;58.04
54936;BME280;40838;50.676;7.838;2023-06-24T13:09:18;99042.00;;;27.29;62.26
54936;BME280;40838;50.676;7.838;2023-06-24T13:11:45;99035.28;;;27.67;59.26